createdAt,value
2023-03-29T00:00:16.884Z,98955.75
2023-03-29T00:02:48.698Z,98955.91
2023-03-29T00:05:18.476Z,98955.91
2023-03-29T00:07:46.255Z,98951.78
2023-03-29T00:10:13.745Z,98946.69
2023-03-29T00:12:42.013Z,98944.81
2023-03-29T00:15:09.822Z,98943.91
2023-03-29T00:17:37.359Z,98938.78
2023-03-29T00:20:08.788Z,98938.75
2023-03-29T00:22:42.288Z,98937.28
2023-03-29T00:25:11.999Z,98937.31
2023-03-29T00:27:40.095Z,98933.91
2023-03-29T00:30:09.142Z,98929.69
2023-03-29T00:32:38.118Z,98921.13
2023-03-29T00:35:07.879Z,98934.00
2023-03-29T00:37:35.829Z,98920.94
2023-03-29T00:40:08.634Z,98918.44
2023-03-29T00:42:36.501Z,98920.13
2023-03-29T00:45:06.415Z,98926.97
2023-03-29T00:48:07.622Z,98919.31
2023-03-29T00:50:53.661Z,98925.28
2023-03-29T00:53:29.538Z,98919.16
2023-03-29T00:56:12.174Z,98915.56
2023-03-29T00:59:01.507Z,98922.47
2023-03-29T01:01:48.244Z,98911.00
2023-03-29T01:04:37.284Z,98919.59
2023-03-29T01:07:26.044Z,98904.63
2023-03-29T01:09:58.597Z,98907.28
2023-03-29T01:12:32.849Z,98910.41
2023-03-29T01:15:05.512Z,98918.09
2023-03-29T01:17:33.322Z,98911.38
2023-03-29T01:20:15.482Z,98914.66
2023-03-29T01:23:07.644Z,98905.31
2023-03-29T01:25:35.076Z,98893.22
2023-03-29T01:28:06.463Z,98884.56
2023-03-29T01:30:40.943Z,98880.22
2023-03-29T01:33:38.977Z,98889.13
2023-03-29T01:36:27.622Z,98869.38
2023-03-29T01:39:05.176Z,98880.34
2023-03-29T01:41:57.386Z,98877.75
2023-03-29T01:44:35.828Z,98873.53
2023-03-29T01:47:19.856Z,98870.97
2023-03-29T01:50:25.741Z,98875.34
2023-03-29T01:52:53.237Z,98873.63
2023-03-29T01:55:39.468Z,98872.97
2023-03-29T01:58:10.584Z,98871.22
2023-03-29T02:00:40.036Z,98866.88
2023-03-29T02:03:09.795Z,98856.59
2023-03-29T02:05:39.701Z,98857.47
2023-03-29T02:08:10.301Z,98852.34
2023-03-29T02:10:38.345Z,98850.81
2023-03-29T02:13:06.298Z,98854.19
2023-03-29T02:15:34.302Z,98843.97
2023-03-29T02:18:04.061Z,98837.22
2023-03-29T02:20:39.063Z,98837.91
2023-03-29T02:23:13.822Z,98837.84
2023-03-29T02:25:43.368Z,98829.84
2023-03-29T02:28:11.914Z,98829.97
2023-03-29T02:31:03.464Z,98833.75
2023-03-29T02:33:53.559Z,98829.69
2023-03-29T02:36:35.223Z,98825.25
2023-03-29T02:39:06.138Z,98823.44
2023-03-29T02:41:34.790Z,98827.72
2023-03-29T02:44:05.453Z,98823.44
2023-03-29T02:46:35.192Z,98810.63
2023-03-29T02:49:05.267Z,98808.19
2023-03-29T02:51:35.530Z,98809.25
2023-03-29T02:54:09.722Z,98822.84
2023-03-29T02:56:46.056Z,98819.69
2023-03-29T02:59:14.520Z,98817.16
2023-03-29T03:01:44.966Z,98798.38
2023-03-29T03:04:13.473Z,98804.56
2023-03-29T03:06:41.675Z,98813.13
2023-03-29T03:09:11.135Z,98809.06
2023-03-29T03:11:41.870Z,98808.19
2023-03-29T03:14:09.712Z,98812.53
2023-03-29T03:16:37.420Z,98804.84
2023-03-29T03:19:07.373Z,98803.34
2023-03-29T03:21:37.784Z,98788.97
2023-03-29T03:24:07.854Z,98801.13
2023-03-29T03:26:38.940Z,98792.38
2023-03-29T03:29:08.145Z,98779.50
2023-03-29T03:31:54.436Z,98807.09
2023-03-29T03:34:45.007Z,98782.97
2023-03-29T03:37:15.589Z,98789.72
2023-03-29T03:39:43.540Z,98788.03
2023-03-29T03:42:11.843Z,98791.66
2023-03-29T03:44:43.267Z,98783.91
2023-03-29T03:47:40.104Z,98790.81
2023-03-29T03:50:28.236Z,98780.59
2023-03-29T03:52:56.096Z,98779.84
2023-03-29T03:55:24.244Z,98777.97
2023-03-29T03:58:12.053Z,98773.03
2023-03-29T04:00:39.601Z,98768.03
2023-03-29T04:03:24.400Z,98776.66
2023-03-29T04:05:53.671Z,98779.22
2023-03-29T04:08:25.134Z,98776.00
2023-03-29T04:11:11.978Z,98771.78
2023-03-29T04:13:42.583Z,98776.25
2023-03-29T04:16:27.795Z,98775.69
2023-03-29T04:18:58.208Z,98756.88
2023-03-29T04:21:27.316Z,98748.53
2023-03-29T04:23:54.926Z,98741.72
2023-03-29T04:26:23.209Z,98740.13
2023-03-29T04:29:03.107Z,98740.88
2023-03-29T04:31:38.980Z,98740.22
2023-03-29T04:34:27.548Z,98742.22
2023-03-29T04:36:58.842Z,98749.31
2023-03-29T04:39:34.078Z,98736.44
2023-03-29T04:42:05.370Z,98747.72
2023-03-29T04:44:34.272Z,98736.50
2023-03-29T04:47:05.232Z,98747.66
2023-03-29T04:49:33.027Z,98754.41
2023-03-29T04:52:01.035Z,98738.13
2023-03-29T04:54:31.102Z,98744.97
2023-03-29T04:56:59.040Z,98745.88
2023-03-29T04:59:35.609Z,98750.16
2023-03-29T05:02:09.311Z,98737.28
2023-03-29T05:04:39.163Z,98728.75
2023-03-29T05:07:15.439Z,98739.56
2023-03-29T05:09:45.885Z,98743.97
2023-03-29T05:12:13.730Z,98733.78
2023-03-29T05:14:59.268Z,98734.75
2023-03-29T05:17:31.888Z,98744.22
2023-03-29T05:20:09.819Z,98744.22
2023-03-29T05:22:38.766Z,98738.38
2023-03-29T05:25:11.788Z,98739.22
2023-03-29T05:27:42.676Z,98738.19
2023-03-29T05:30:15.868Z,98739.84
2023-03-29T05:33:10.660Z,98740.78
2023-03-29T05:35:39.363Z,98738.09
2023-03-29T05:38:09.070Z,98751.00
2023-03-29T05:40:37.240Z,98750.22
2023-03-29T05:43:43.402Z,98731.88
2023-03-29T05:46:12.407Z,98749.03
2023-03-29T05:48:47.581Z,98740.59
2023-03-29T05:51:18.891Z,98741.47
2023-03-29T05:53:46.724Z,98742.66
2023-03-29T05:56:16.119Z,98745.22
2023-03-29T05:58:47.342Z,98735.97
2023-03-29T06:01:15.477Z,98747.22
2023-03-29T06:03:57.539Z,98730.50
2023-03-29T06:06:31.787Z,98732.25
2023-03-29T06:09:01.484Z,98735.00
2023-03-29T06:11:36.309Z,98743.69
2023-03-29T06:14:24.594Z,98728.31
2023-03-29T06:17:06.760Z,98736.06
2023-03-29T06:19:35.320Z,98742.13
2023-03-29T06:22:02.990Z,98715.66
2023-03-29T06:24:33.944Z,98722.66
2023-03-29T06:27:07.380Z,98719.31
2023-03-29T06:29:35.425Z,98720.28
2023-03-29T06:32:03.538Z,98714.97
2023-03-29T06:34:57.825Z,98723.56
2023-03-29T06:37:34.461Z,98718.47
2023-03-29T06:40:23.061Z,98715.88
2023-03-29T06:42:57.856Z,98713.28
2023-03-29T06:45:44.766Z,98733.88
2023-03-29T06:48:26.025Z,98727.69
2023-03-29T06:50:54.704Z,98732.53
2023-03-29T06:53:26.456Z,98722.06
2023-03-29T06:56:01.211Z,98729.63
2023-03-29T06:58:56.292Z,98723.44
2023-03-29T07:01:39.209Z,98718.06
2023-03-29T07:04:24.830Z,98713.81
2023-03-29T07:08:00.365Z,98726.59
2023-03-29T07:10:47.682Z,98726.28
2023-03-29T07:13:45.941Z,98735.56
2023-03-29T07:17:28.280Z,98726.22
2023-03-29T07:20:29.863Z,98730.06
2023-03-29T07:23:18.378Z,98715.47
2023-03-29T07:25:47.491Z,98725.81
2023-03-29T07:40:01.569Z,98729.25
2023-03-29T07:42:46.960Z,98730.31
2023-03-29T07:45:26.787Z,98722.84
2023-03-29T07:48:02.218Z,98724.28
2023-03-29T07:50:46.448Z,98725.31
2023-03-29T07:53:14.766Z,98724.69
2023-03-29T07:55:47.702Z,98723.81
2023-03-29T07:58:54.328Z,98721.38
2023-03-29T08:01:22.250Z,98717.06
2023-03-29T08:04:13.219Z,98729.19
2023-03-29T08:06:59.138Z,98728.31
2023-03-29T08:09:38.983Z,98719.59
2023-03-29T08:12:07.682Z,98734.97
2023-03-29T08:14:38.636Z,98734.34
2023-03-29T08:17:24.890Z,98730.91
2023-03-29T08:20:00.506Z,98715.81
2023-03-29T08:22:33.464Z,98716.09
2023-03-29T08:25:12.123Z,98719.75
2023-03-29T08:27:44.906Z,98710.19
2023-03-29T08:30:16.549Z,98708.41
2023-03-29T08:32:46.922Z,98702.50
2023-03-29T08:35:18.930Z,98706.13
2023-03-29T08:37:59.340Z,98696.50
2023-03-29T08:40:32.082Z,98705.97
2023-03-29T08:43:12.052Z,98708.59
2023-03-29T08:46:46.562Z,98707.66
2023-03-29T08:49:42.876Z,98716.91
2023-03-29T08:52:34.529Z,98714.25
2023-03-29T08:55:31.864Z,98709.84
2023-03-29T08:58:27.557Z,98689.22
2023-03-29T09:00:58.176Z,98702.25
2023-03-29T09:03:35.171Z,98696.16
2023-03-29T09:06:15.848Z,98711.34
2023-03-29T09:08:49.403Z,98695.22
2023-03-29T09:11:46.940Z,98694.88
2023-03-29T09:14:21.917Z,98696.53
2023-03-29T09:17:28.849Z,98696.75
2023-03-29T09:20:19.045Z,98690.72
2023-03-29T09:22:58.772Z,98706.91
2023-03-29T09:25:54.013Z,98702.69
2023-03-29T09:28:38.416Z,98695.16
2023-03-29T09:31:23.159Z,98695.78
2023-03-29T09:33:59.363Z,98708.31
2023-03-29T09:37:15.920Z,98696.16
2023-03-29T09:39:45.934Z,98713.81
2023-03-29T09:42:19.819Z,98701.63
2023-03-29T09:44:57.258Z,98700.03
2023-03-29T09:47:57.235Z,98708.00
2023-03-29T09:50:36.947Z,98699.28
2023-03-29T09:53:08.721Z,98717.84
2023-03-29T09:55:40.908Z,98703.25
2023-03-29T09:58:31.292Z,98690.38
2023-03-29T10:01:01.926Z,98695.53
2023-03-29T10:04:13.036Z,98703.56
2023-03-29T10:06:53.411Z,98718.59
2023-03-29T10:10:10.633Z,98702.31
2023-03-29T10:16:55.658Z,98698.13
2023-03-29T10:19:28.476Z,98692.03
2023-03-29T10:21:59.998Z,98705.78
2023-03-29T10:24:28.452Z,98688.66
2023-03-29T10:27:04.222Z,98703.44
2023-03-29T10:29:43.210Z,98679.47
2023-03-29T10:32:40.416Z,98677.78
2023-03-29T10:35:11.924Z,98691.41
2023-03-29T10:37:56.557Z,98696.50
2023-03-29T10:40:35.209Z,98680.34
2023-03-29T10:43:35.666Z,98687.91
2023-03-29T10:46:21.509Z,98678.56
2023-03-29T10:48:52.592Z,98668.19
2023-03-29T10:51:20.791Z,98679.16
2023-03-29T10:53:51.250Z,98670.59
2023-03-29T10:56:40.720Z,98673.25
2023-03-29T10:59:23.285Z,98671.38
2023-03-29T11:02:09.218Z,98669.66
2023-03-29T11:04:47.074Z,98673.84
2023-03-29T11:07:58.609Z,98694.31
2023-03-29T11:10:47.735Z,98702.69
2023-03-29T11:13:40.147Z,98683.00
2023-03-29T11:16:33.990Z,98665.91
2023-03-29T11:19:31.979Z,98679.63
2023-03-29T11:22:02.376Z,98681.88
2023-03-29T11:24:54.518Z,98672.50
2023-03-29T11:27:52.696Z,98684.69
2023-03-29T11:30:36.257Z,98668.19
2023-03-29T11:33:33.697Z,98672.59
2023-03-29T11:36:16.915Z,98682.69
2023-03-29T11:38:58.995Z,98690.22
2023-03-29T11:41:34.600Z,98684.03
2023-03-29T11:44:13.904Z,98679.22
2023-03-29T11:46:50.866Z,98682.47
2023-03-29T11:49:25.269Z,98680.81
2023-03-29T11:51:59.749Z,98691.16
2023-03-29T11:54:34.584Z,98692.09
2023-03-29T11:57:14.243Z,98690.22
2023-03-29T11:59:56.026Z,98692.13
2023-03-29T12:02:39.930Z,98690.28
2023-03-29T12:05:16.082Z,98698.63
2023-03-29T12:07:52.759Z,98695.28
2023-03-29T12:10:23.708Z,98686.44
2023-03-29T12:13:12.112Z,98697.31
2023-03-29T12:15:52.805Z,98680.16
2023-03-29T12:18:27.891Z,98699.88
2023-03-29T12:21:00.154Z,98694.78
2023-03-29T12:23:32.903Z,98728.06
2023-03-29T12:26:35.071Z,98700.72
2023-03-29T12:29:30.851Z,98710.03
2023-03-29T12:32:20.033Z,98702.13
2023-03-29T12:35:37.975Z,98702.94
2023-03-29T12:38:28.667Z,98715.56
2023-03-29T12:41:16.782Z,98713.66
2023-03-29T12:44:06.876Z,98710.22
2023-03-29T12:46:52.462Z,98705.84
2023-03-29T12:49:39.220Z,98702.69
2023-03-29T12:52:38.078Z,98708.69
2023-03-29T12:55:24.707Z,98712.03
2023-03-29T12:58:21.831Z,98728.16
2023-03-29T13:01:05.519Z,98710.09
2023-03-29T13:03:57.828Z,98724.78
2023-03-29T13:06:53.669Z,98731.56
2023-03-29T13:09:35.398Z,98713.59
2023-03-29T13:12:35.009Z,98709.44
2023-03-29T13:15:06.261Z,98716.78
2023-03-29T13:17:46.457Z,98717.84
2023-03-29T13:20:14.262Z,98725.41
2023-03-29T13:22:48.250Z,98719.59
2023-03-29T13:25:19.161Z,98720.09
2023-03-29T13:27:49.436Z,98725.19
2023-03-29T13:30:55.320Z,98720.06
2023-03-29T13:33:49.766Z,98724.25
2023-03-29T13:36:39.392Z,98727.75
2023-03-29T13:39:13.551Z,98734.31
2023-03-29T13:41:41.202Z,98751.41
2023-03-29T13:44:27.275Z,98746.31
2023-03-29T13:47:12.709Z,98754.63
2023-03-29T13:49:44.710Z,98751.97
2023-03-29T13:52:16.529Z,98757.16
2023-03-29T13:55:00.222Z,98758.78
2023-03-29T13:57:59.610Z,98768.47
2023-03-29T14:00:41.194Z,98767.44
2023-03-29T14:03:14.985Z,98764.78
2023-03-29T14:05:49.706Z,98767.97
2023-03-29T14:08:25.546Z,98782.63
2023-03-29T14:10:54.285Z,98775.47
2023-03-29T14:13:25.626Z,98772.19
2023-03-29T14:16:02.921Z,98765.53
2023-03-29T14:18:37.814Z,98773.28
2023-03-29T14:21:06.533Z,98761.22
2023-03-29T14:23:37.534Z,98781.75
2023-03-29T14:26:15.553Z,98780.28
2023-03-29T14:28:47.091Z,98768.16
2023-03-29T14:31:23.295Z,98779.22
2023-03-29T14:33:55.549Z,98785.09
2023-03-29T14:36:25.297Z,98788.34
2023-03-29T14:38:59.659Z,98787.63
2023-03-29T14:41:33.810Z,98796.22
2023-03-29T14:44:03.188Z,98792.84
2023-03-29T14:46:31.781Z,98808.31
2023-03-29T14:49:00.175Z,98794.81
2023-03-29T14:51:30.604Z,98797.38
2023-03-29T14:54:00.343Z,98795.53
2023-03-29T14:56:28.231Z,98808.28
2023-03-29T14:58:56.860Z,98808.44
2023-03-29T15:01:26.290Z,98802.56
2023-03-29T15:03:56.758Z,98810.41
2023-03-29T15:06:26.422Z,98806.03
2023-03-29T15:09:05.041Z,98804.44
2023-03-29T15:11:36.045Z,98816.34
2023-03-29T15:14:08.981Z,98804.50
2023-03-29T15:16:42.745Z,98814.59
2023-03-29T15:19:17.490Z,98825.00
2023-03-29T15:21:48.082Z,98819.75
2023-03-29T15:24:30.526Z,98810.41
2023-03-29T15:27:13.672Z,98820.50
2023-03-29T15:29:42.901Z,98827.53
2023-03-29T15:32:19.949Z,98826.69
2023-03-29T15:34:58.777Z,98833.72
2023-03-29T15:37:26.888Z,98850.53
2023-03-29T15:39:54.561Z,98831.84
2023-03-29T15:42:22.525Z,98828.38
2023-03-29T15:44:53.833Z,98834.38
2023-03-29T15:47:21.549Z,98841.38
2023-03-29T15:49:49.204Z,98850.91
2023-03-29T15:52:16.921Z,98859.28
2023-03-29T15:54:44.489Z,98850.53
2023-03-29T15:57:15.708Z,98858.22
2023-03-29T15:59:44.606Z,98857.31
2023-03-29T16:02:16.818Z,98859.72
2023-03-29T16:04:45.648Z,98859.88
2023-03-29T16:07:16.177Z,98867.59
2023-03-29T16:09:46.100Z,98871.75
2023-03-29T16:12:16.237Z,98874.31
2023-03-29T16:14:43.834Z,98875.25
2023-03-29T16:17:11.638Z,98868.31
2023-03-29T16:19:39.155Z,98878.81
2023-03-29T16:22:07.602Z,98877.22
2023-03-29T16:24:36.447Z,98886.59
2023-03-29T16:27:04.698Z,98880.66
2023-03-29T16:29:32.740Z,98886.47
2023-03-29T16:32:01.040Z,98876.16
2023-03-29T16:34:30.633Z,98887.38
2023-03-29T16:36:58.425Z,98885.66
2023-03-29T16:39:26.219Z,98887.63
2023-03-29T16:41:53.957Z,98887.63
2023-03-29T16:44:23.598Z,98903.94
2023-03-29T16:46:58.291Z,98901.41
2023-03-29T16:49:26.138Z,98892.00
2023-03-29T16:51:53.656Z,98898.81
2023-03-29T16:54:21.443Z,98897.22
2023-03-29T16:56:49.239Z,98900.63
2023-03-29T16:59:16.954Z,98898.84
2023-03-29T17:01:46.055Z,98894.72
2023-03-29T17:04:13.727Z,98894.53
2023-03-29T17:06:42.091Z,98899.69
2023-03-29T17:09:10.098Z,98910.03
2023-03-29T17:11:37.774Z,98910.94
2023-03-29T17:14:05.252Z,98904.91
2023-03-29T17:16:33.099Z,98912.59
2023-03-29T17:19:00.998Z,98904.94
2023-03-29T17:21:29.809Z,98895.59
2023-03-29T17:23:57.371Z,98903.38
2023-03-29T17:26:24.934Z,98906.91
2023-03-29T17:28:52.570Z,98911.16
2023-03-29T17:31:20.126Z,98916.38
2023-03-29T17:33:50.582Z,98912.06
2023-03-29T17:36:19.308Z,98918.94
2023-03-29T17:38:48.946Z,98915.38
2023-03-29T17:41:17.299Z,98916.41
2023-03-29T17:43:45.351Z,98931.72
2023-03-29T17:46:12.795Z,98913.63
2023-03-29T17:48:40.360Z,98902.97
2023-03-29T17:51:07.900Z,98911.59
2023-03-29T17:53:35.470Z,98915.03
2023-03-29T17:56:03.160Z,98918.47
2023-03-29T17:58:31.422Z,98915.16
2023-03-29T18:00:58.880Z,98922.09
2023-03-29T18:03:26.603Z,98910.97
2023-03-29T18:05:54.366Z,98919.66
2023-03-29T18:08:22.018Z,98929.03
2023-03-29T18:10:50.931Z,98934.09
2023-03-29T18:13:24.622Z,98923.72
2023-03-29T18:15:56.615Z,98931.53
2023-03-29T18:18:25.318Z,98937.31
2023-03-29T18:20:53.059Z,98937.34
2023-03-29T18:23:20.627Z,98933.03
2023-03-29T18:25:48.290Z,98943.38
2023-03-29T18:28:15.937Z,98944.22
2023-03-29T18:30:43.930Z,98944.13
2023-03-29T18:33:11.411Z,98942.13
2023-03-29T18:35:39.133Z,98940.44
2023-03-29T18:38:06.889Z,98944.00
2023-03-29T18:40:34.943Z,98948.13
2023-03-29T18:43:02.860Z,98949.91
2023-03-29T18:45:30.498Z,98937.16
2023-03-29T18:47:58.168Z,98952.66
2023-03-29T18:50:25.833Z,98946.59
2023-03-29T18:52:54.066Z,98957.25
2023-03-29T18:55:21.703Z,98961.28
2023-03-29T18:57:49.440Z,98958.78
2023-03-29T19:00:17.586Z,98962.16
2023-03-29T19:02:45.264Z,98971.50
2023-03-29T19:05:13.782Z,98955.97
2023-03-29T19:07:41.283Z,98961.22
2023-03-29T19:10:09.000Z,98963.72
2023-03-29T19:12:36.813Z,98963.63
2023-03-29T19:15:04.768Z,98970.38
2023-03-29T19:17:32.312Z,98971.16
2023-03-29T19:19:59.872Z,98964.41
2023-03-29T19:22:27.399Z,98959.13
2023-03-29T19:24:54.977Z,98961.66
2023-03-29T19:27:22.476Z,98959.97
2023-03-29T19:29:52.155Z,98968.53
2023-03-29T19:32:19.855Z,98974.50
2023-03-29T19:34:47.706Z,98968.44
2023-03-29T19:37:17.688Z,98971.88
2023-03-29T19:39:45.826Z,98966.84
2023-03-29T19:42:13.631Z,98967.56
2023-03-29T19:44:41.304Z,98968.44
2023-03-29T19:47:08.767Z,98967.56
2023-03-29T19:49:38.833Z,98977.81
2023-03-29T19:52:07.482Z,98970.25
2023-03-29T19:54:35.049Z,98977.81
2023-03-29T19:57:02.872Z,98973.38
2023-03-29T19:59:31.601Z,98977.81
2023-03-29T20:01:59.451Z,98973.34
2023-03-29T20:04:28.796Z,98974.13
2023-03-29T20:06:57.754Z,98970.78
2023-03-29T20:09:25.293Z,98976.97
2023-03-29T20:11:52.745Z,98978.59
2023-03-29T20:14:20.488Z,98980.31
2023-03-29T20:16:50.708Z,98980.41
2023-03-29T20:19:18.751Z,98970.94
2023-03-29T20:21:46.375Z,98982.78
2023-03-29T20:24:13.903Z,98987.91
2023-03-29T20:26:41.403Z,98980.25
2023-03-29T20:29:08.936Z,98986.19
2023-03-29T20:31:36.588Z,98983.53
2023-03-29T20:34:04.019Z,98982.72
2023-03-29T20:36:33.086Z,98977.50
2023-03-29T20:39:01.605Z,98978.97
2023-03-29T20:41:29.334Z,98986.75
2023-03-29T20:44:00.138Z,98979.06
2023-03-29T20:46:35.140Z,98985.22
2023-03-29T20:49:04.697Z,98986.91
2023-03-29T20:51:32.280Z,98982.53
2023-03-29T20:54:04.928Z,98979.97
2023-03-29T20:56:34.724Z,98986.09
2023-03-29T20:59:04.108Z,98991.22
2023-03-29T21:01:32.820Z,98986.09
2023-03-29T21:04:00.734Z,98992.94
2023-03-29T21:06:28.339Z,98988.81
2023-03-29T21:08:55.926Z,98991.16
2023-03-29T21:11:23.812Z,98996.41
2023-03-29T21:13:52.926Z,98995.41
2023-03-29T21:16:20.868Z,99003.19
2023-03-29T21:18:48.469Z,98998.88
2023-03-29T21:21:15.923Z,98999.78
2023-03-29T21:23:43.522Z,99005.13
2023-03-29T21:26:12.670Z,98999.91
2023-03-29T21:28:41.463Z,98997.44
2023-03-29T21:31:09.946Z,98996.66
2023-03-29T21:33:37.596Z,98996.53
2023-03-29T21:36:05.780Z,99003.59
2023-03-29T21:38:33.374Z,99009.41
2023-03-29T21:41:02.424Z,99018.78
2023-03-29T21:43:30.392Z,99011.16
2023-03-29T21:45:57.994Z,99005.16
2023-03-29T21:48:25.658Z,99007.47
2023-03-29T21:50:53.164Z,99009.28
2023-03-29T21:53:20.649Z,98999.06
2023-03-29T21:55:49.161Z,99008.47
2023-03-29T21:58:17.038Z,99003.44
2023-03-29T22:00:45.155Z,99005.22
2023-03-29T22:03:13.777Z,99003.34
2023-03-29T22:05:42.095Z,99006.66
2023-03-29T22:08:10.375Z,99009.22
2023-03-29T22:10:41.424Z,99001.66
2023-03-29T22:13:09.449Z,99000.00
2023-03-29T22:15:39.057Z,99001.13
2023-03-29T22:18:06.689Z,99002.03
2023-03-29T22:20:36.958Z,98997.53
2023-03-29T22:23:06.776Z,99004.47
2023-03-29T22:25:36.643Z,99002.59
2023-03-29T22:28:04.356Z,99005.03
2023-03-29T22:30:31.828Z,98995.72
2023-03-29T22:32:59.438Z,99002.47
2023-03-29T22:35:28.000Z,99004.31
2023-03-29T22:37:55.562Z,99009.59
2023-03-29T22:40:23.026Z,99013.88
2023-03-29T22:42:50.910Z,98997.50
2023-03-29T22:45:18.838Z,99003.59
2023-03-29T22:47:46.655Z,99008.72
2023-03-29T22:50:14.170Z,98999.19
2023-03-29T22:52:41.695Z,99004.41
2023-03-29T22:55:09.505Z,99001.88
2023-03-29T22:57:36.996Z,98991.41
2023-03-29T23:00:09.254Z,98988.16
2023-03-29T23:02:37.387Z,98993.53
2023-03-29T23:05:05.176Z,98994.53
2023-03-29T23:07:36.485Z,98986.88
2023-03-29T23:10:07.718Z,98999.00
2023-03-29T23:12:38.373Z,98992.94
2023-03-29T23:15:08.158Z,98995.69
2023-03-29T23:17:37.334Z,98992.25
2023-03-29T23:20:10.914Z,98993.91
2023-03-29T23:22:39.908Z,98989.66
2023-03-29T23:25:07.904Z,98998.16
2023-03-29T23:27:35.574Z,98995.34
2023-03-29T23:30:03.418Z,99007.25
2023-03-29T23:32:31.554Z,98998.66
2023-03-29T23:35:00.182Z,98998.66
2023-03-29T23:37:28.233Z,98994.44
2023-03-29T23:39:55.934Z,99005.41
2023-03-29T23:42:23.709Z,98997.75
2023-03-29T23:44:51.318Z,98988.28
2023-03-29T23:47:19.073Z,98997.66
2023-03-29T23:49:46.950Z,98999.44
2023-03-29T23:52:14.563Z,98992.63
2023-03-29T23:54:42.170Z,98992.88
2023-03-29T23:57:12.270Z,99001.50
2023-03-29T23:59:40.256Z,99000.75
